Time;durP1;ratioP1;P1;durP2;ratioP2;P2;SDS_P1;SDS_P2;PMS_P1;PMS_P2;Temp;Humidity;BMP_temperature;BMP_pressure;BME280_temperature;BME280_humidity;BME280_pressure;Samples;Min_cycle;Max_cycle;Signal;HPM_P1;HPM_P2
2022/06/17 00:01:37;;;;;;;2.08;1.88;;;18.50;99.20;;;;;;5035152;28;20562;-70
2022/06/17 00:04:03;;;;;;;2.30;1.98;;;18.50;99.10;;;;;;5034767;28;20254;-69
2022/06/17 00:06:34;;;;;;;2.55;2.08;;;18.40;98.70;;;;;;5034682;28;20165;-70
2022/06/17 00:09:00;;;;;;;4.20;1.85;;;18.20;99.00;;;;;;5035497;28;20216;-69
2022/06/17 00:11:31;;;;;;;3.25;2.28;;;18.20;99.40;;;;;;5035456;28;20200;-69
2022/06/17 00:13:57;;;;;;;4.03;2.38;;;18.10;99.40;;;;;;5035090;28;20169;-71
2022/06/17 00:16:29;;;;;;;4.53;2.60;;;18.20;99.50;;;;;;5034324;28;20228;-70
2022/06/17 00:18:55;;;;;;;3.67;2.42;;;18.20;99.70;;;;;;5034504;28;20204;-70
2022/06/17 00:21:23;;;;;;;6.00;2.97;;;18.20;99.80;;;;;;5034535;28;20673;-69
2022/06/17 00:23:49;;;;;;;2.45;2.25;;;18.20;99.40;;;;;;5034499;28;20169;-70
2022/06/17 00:26:15;;;;;;;2.53;2.00;;;18.20;99.80;;;;;;5034622;28;20161;-69
2022/06/17 00:28:41;;;;;;;2.47;2.28;;;18.20;99.90;;;;;;5034350;28;20177;-70
2022/06/17 00:31:06;;;;;;;7.63;2.30;;;18.20;99.90;;;;;;5033687;28;20184;-71
2022/06/17 00:33:32;;;;;;;2.03;1.83;;;18.10;99.90;;;;;;5034753;28;20165;-69
2022/06/17 00:35:58;;;;;;;2.22;1.88;;;18.10;99.90;;;;;;5034362;28;20619;-71
2022/06/17 00:38:28;;;;;;;3.47;2.20;;;18.10;99.90;;;;;;5034579;28;20201;-69
2022/06/17 00:40:55;;;;;;;2.67;2.38;;;18.00;99.90;;;;;;5034612;28;20165;-69
2022/06/17 00:43:27;;;;;;;3.83;1.90;;;18.00;99.90;;;;;;5034295;28;20486;-70
2022/06/17 00:46:11;;;;;;;2.35;2.10;;;17.90;99.90;;;;;;5034109;28;20161;-71
2022/06/17 00:48:42;;;;;;;2.00;1.90;;;17.90;99.90;;;;;;5034056;28;20597;-70
2022/06/17 00:51:20;;;;;;;7.38;2.42;;;17.90;99.90;;;;;;5034500;28;20169;-71
2022/06/17 00:54:36;;;;;;;5.38;1.63;;;17.90;99.90;;;;;;5032927;28;20188;-70
2022/06/17 00:57:28;;;;;;;3.85;1.80;;;17.90;99.90;;;;;;5032066;28;20195;-69
2022/06/17 01:00:21;;;;;;;3.15;1.92;;;17.80;99.90;;;;;;5041057;28;20232;-70
2022/06/17 01:02:48;;;;;;;2.58;1.83;;;17.80;99.90;;;;;;5043559;28;20189;-68
2022/06/17 01:05:16;;;;;;;3.00;2.45;;;17.70;99.90;;;;;;5047263;28;20240;-69
2022/06/17 01:07:57;;;;;;;5.32;1.75;;;17.80;99.90;;;;;;5044180;28;20215;-69
2022/06/17 01:10:23;;;;;;;2.35;2.00;;;17.70;99.90;;;;;;5034226;28;20665;-71
2022/06/17 01:12:55;;;;;;;3.05;2.05;;;17.70;99.90;;;;;;5033712;28;20169;-70
2022/06/17 01:15:23;;;;;;;5.03;2.00;;;17.70;99.90;;;;;;5032977;28;20597;-69
2022/06/17 01:17:49;;;;;;;7.25;2.05;;;17.70;99.90;;;;;;5035350;28;20172;-69
2022/06/17 01:20:17;;;;;;;2.50;1.80;;;17.70;99.90;;;;;;5034811;28;20197;-69
2022/06/17 01:22:44;;;;;;;6.82;2.17;;;17.70;99.90;;;;;;5034957;28;20161;-70
2022/06/17 01:25:16;;;;;;;2.13;1.85;;;17.60;99.90;;;;;;5031969;28;20200;-70
2022/06/17 01:27:45;;;;;;;2.63;2.00;;;17.60;99.90;;;;;;5034353;28;20172;-69
2022/06/17 01:30:16;;;;;;;2.20;1.70;;;17.60;99.90;;;;;;5034973;28;20172;-69
2022/06/17 01:32:58;;;;;;;2.03;1.83;;;17.50;99.90;;;;;;5034600;28;20169;-70
2022/06/17 01:35:30;;;;;;;2.63;1.85;;;17.50;99.90;;;;;;5034445;28;20171;-70
2022/06/17 01:37:57;;;;;;;2.45;2.10;;;17.50;99.90;;;;;;5036443;28;20177;-69
2022/06/17 01:40:24;;;;;;;3.35;1.98;;;17.40;99.90;;;;;;5043099;28;20192;-70
2022/06/17 01:42:50;;;;;;;2.22;2.03;;;17.40;99.90;;;;;;5047709;28;20154;-70
2022/06/17 01:45:16;;;;;;;3.92;2.10;;;17.40;99.90;;;;;;5050304;28;20168;-70
2022/06/17 01:47:44;;;;;;;3.90;2.10;;;17.30;99.90;;;;;;5042001;28;20150;-70
2022/06/17 01:50:26;;;;;;;1.95;1.80;;;17.30;99.90;;;;;;5033859;28;20169;-69
2022/06/17 01:53:03;;;;;;;1.98;1.70;;;17.30;99.90;;;;;;5033453;28;20668;-69
2022/06/17 01:55:53;;;;;;;3.08;1.90;;;17.30;99.90;;;;;;5033120;28;20204;-69
2022/06/17 01:58:27;;;;;;;3.85;2.08;;;17.30;99.90;;;;;;5033096;28;20197;-68
2022/06/17 02:00:54;;;;;;;1.80;1.70;;;17.20;99.90;;;;;;5034417;28;20519;-71
2022/06/17 02:03:26;;;;;;;1.73;1.58;;;17.20;99.90;;;;;;5037472;28;20184;-70
2022/06/17 02:06:01;;;;;;;2.30;2.10;;;17.20;99.90;;;;;;5037327;28;20228;-71
2022/06/17 02:08:27;;;;;;;2.00;1.80;;;17.20;99.90;;;;;;5036852;28;20251;-70
2022/06/17 02:10:53;;;;;;;3.92;1.98;;;17.20;99.90;;;;;;5036245;28;20215;-71
2022/06/17 02:13:19;;;;;;;2.47;1.90;;;17.10;99.90;;;;;;5036913;28;20161;-69
2022/06/17 02:15:46;;;;;;;2.20;1.85;;;17.10;99.90;;;;;;5036384;28;20165;-69
2022/06/17 02:18:18;;;;;;;2.30;1.95;;;17.20;99.90;;;;;;5037055;28;20165;-71
2022/06/17 02:20:46;;;;;;;2.67;1.73;;;17.10;99.90;;;;;;5036112;28;20243;-70
2022/06/17 02:23:11;;;;;;;5.33;2.10;;;17.10;99.90;;;;;;5036290;28;20173;-70
2022/06/17 02:25:44;;;;;;;2.42;1.80;;;17.00;99.90;;;;;;5036971;28;20287;-70
2022/06/17 02:28:11;;;;;;;3.10;1.70;;;17.10;99.90;;;;;;5038253;28;20200;-70
2022/06/17 02:30:39;;;;;;;2.40;1.98;;;17.00;99.90;;;;;;5037482;28;20180;-68
2022/06/17 02:33:06;;;;;;;2.80;1.98;;;17.00;99.90;;;;;;5037252;28;20161;-70
2022/06/17 02:35:44;;;;;;;2.03;1.80;;;17.00;99.90;;;;;;5036844;28;20560;-69
2022/06/17 02:38:16;;;;;;;2.47;2.00;;;17.00;99.90;;;;;;5037349;28;20169;-70
2022/06/17 02:40:46;;;;;;;2.53;1.70;;;17.00;99.90;;;;;;5036894;28;20210;-70
2022/06/17 02:43:20;;;;;;;2.33;2.13;;;16.90;99.90;;;;;;5036272;28;20329;-71
2022/06/17 02:45:54;;;;;;;3.13;1.90;;;16.90;99.90;;;;;;5036378;28;20512;-69
2022/06/17 02:48:27;;;;;;;3.35;1.80;;;16.90;99.90;;;;;;5036387;28;20291;-71
2022/06/17 02:50:57;;;;;;;5.13;2.30;;;16.80;99.90;;;;;;5036235;28;20169;-68
2022/06/17 02:53:34;;;;;;;2.43;1.80;;;16.80;99.90;;;;;;5036553;28;20608;-68
2022/06/17 02:56:06;;;;;;;1.80;1.70;;;16.70;99.90;;;;;;5036633;28;20227;-69
2022/06/17 02:59:07;;;;;;;2.27;1.80;;;16.70;99.90;;;;;;5045676;28;20268;-71
2022/06/17 03:01:36;;;;;;;3.22;1.83;;;16.70;99.90;;;;;;5044300;28;20211;-71
2022/06/17 03:04:14;;;;;;;2.10;1.80;;;16.60;99.90;;;;;;5048652;28;20597;-70
2022/06/17 03:06:42;;;;;;;4.47;1.70;;;16.60;99.90;;;;;;5035847;28;20300;-69
2022/06/17 03:09:36;;;;;;;3.25;1.80;;;16.60;99.90;;;;;;5036195;28;20165;-70
2022/06/17 03:12:15;;;;;;;2.77;1.97;;;16.60;99.90;;;;;;5034745;28;20199;-68
2022/06/17 03:14:50;;;;;;;3.67;2.17;;;16.60;99.90;;;;;;5035576;28;20191;-69
2022/06/17 03:17:19;;;;;;;2.93;2.00;;;16.60;99.90;;;;;;5035633;28;20201;-69
2022/06/17 03:19:46;;;;;;;2.87;2.20;;;16.50;99.90;;;;;;5035380;28;20200;-69
2022/06/17 03:22:13;;;;;;;3.13;1.97;;;16.40;99.90;;;;;;5035772;28;20168;-69
2022/06/17 03:24:43;;;;;;;2.80;1.98;;;16.40;99.90;;;;;;5036202;28;20168;-70
2022/06/17 03:27:21;;;;;;;3.22;1.90;;;16.40;99.90;;;;;;5035763;28;20248;-69
2022/06/17 03:29:49;;;;;;;2.17;1.73;;;16.40;99.90;;;;;;5035374;28;20169;-70
2022/06/17 03:32:32;;;;;;;4.03;1.80;;;16.30;99.90;;;;;;5035921;28;20255;-71
2022/06/17 03:34:58;;;;;;;2.72;1.77;;;16.30;99.90;;;;;;5037968;28;20538;-69
2022/06/17 03:37:57;;;;;;;3.63;2.00;;;16.40;99.90;;;;;;5045893;28;20180;-69
2022/06/17 03:40:37;;;;;;;2.23;2.00;;;16.40;99.90;;;;;;5035302;28;20197;-71
2022/06/17 03:43:11;;;;;;;2.60;1.90;;;16.40;99.90;;;;;;5034858;28;20165;-70
2022/06/17 03:45:49;;;;;;;3.10;1.70;;;16.40;99.90;;;;;;5034632;28;20157;-71
2022/06/17 03:48:21;;;;;;;5.90;2.00;;;16.20;99.90;;;;;;5034214;28;20218;-69
2022/06/17 03:50:47;;;;;;;3.13;1.70;;;16.10;99.90;;;;;;5034302;28;20197;-71
2022/06/17 03:53:26;;;;;;;2.57;1.83;;;16.00;99.90;;;;;;5031141;28;20224;-69
2022/06/17 03:55:54;;;;;;;4.47;2.10;;;16.10;99.90;;;;;;5034086;28;20161;-69
2022/06/17 03:58:21;;;;;;;5.37;2.20;;;16.10;99.90;;;;;;5034278;28;20218;-68
2022/06/17 04:01:11;;;;;;;3.77;2.30;;;16.10;99.90;;;;;;5033876;28;20203;-68
2022/06/17 04:03:39;;;;;;;3.25;2.17;;;16.10;99.90;;;;;;5034214;28;20177;-70
2022/06/17 04:06:12;;;;;;;3.67;2.73;;;16.00;99.90;;;;;;5033821;28;20233;-68
2022/06/17 04:08:55;;;;;;;7.07;2.77;;;16.10;99.90;;;;;;5033889;28;20200;-69
2022/06/17 04:11:23;;;;;;;3.57;1.90;;;16.20;99.90;;;;;;5034072;28;20585;-69
2022/06/17 04:13:50;;;;;;;3.40;1.90;;;16.30;99.90;;;;;;5034076;28;20165;-69
2022/06/17 04:16:29;;;;;;;2.50;1.73;;;16.40;99.90;;;;;;5033414;28;20215;-69
2022/06/17 04:19:12;;;;;;;2.10;1.90;;;16.40;99.90;;;;;;5034251;28;20337;-70
2022/06/17 04:21:38;;;;;;;2.00;1.77;;;16.40;99.90;;;;;;5033370;28;20200;-70
2022/06/17 04:24:06;;;;;;;2.27;1.90;;;16.30;99.90;;;;;;5033062;28;20200;-68
2022/06/17 04:26:35;;;;;;;2.03;1.70;;;16.40;99.90;;;;;;5033880;28;20163;-69
2022/06/17 04:29:04;;;;;;;2.27;1.87;;;16.30;99.90;;;;;;5033770;28;20590;-70
2022/06/17 04:31:32;;;;;;;3.47;2.00;;;16.30;99.90;;;;;;5034243;28;20526;-70
2022/06/17 04:34:05;;;;;;;4.50;2.10;;;16.40;99.90;;;;;;5033623;28;20161;-71
2022/06/17 04:36:54;;;;;;;2.27;1.97;;;16.40;99.90;;;;;;5033496;28;20240;-69
2022/06/17 04:39:35;;;;;;;3.93;1.70;;;16.40;99.90;;;;;;5034042;28;20193;-70
2022/06/17 04:42:06;;;;;;;4.20;1.80;;;16.50;99.90;;;;;;5033287;28;20562;-69
2022/06/17 04:44:32;;;;;;;4.97;1.93;;;16.60;99.90;;;;;;5032900;28;20177;-69
2022/06/17 04:47:20;;;;;;;2.30;1.70;;;16.50;99.90;;;;;;5033964;28;20493;-70
2022/06/17 04:49:56;;;;;;;6.63;1.75;;;16.70;99.90;;;;;;5033702;28;20557;-70
2022/06/17 04:52:49;;;;;;;2.37;1.53;;;16.70;99.90;;;;;;5034266;28;20169;-70
2022/06/17 04:55:23;;;;;;;3.93;1.97;;;16.70;99.90;;;;;;5034486;28;20172;-69
2022/06/17 04:57:49;;;;;;;3.47;1.90;;;16.80;99.90;;;;;;5033760;28;20256;-70
2022/06/17 05:00:21;;;;;;;1.90;1.60;;;16.90;99.90;;;;;;5042529;28;20645;-70
2022/06/17 05:02:47;;;;;;;3.80;1.75;;;17.00;99.90;;;;;;5042223;28;20196;-70
2022/06/17 05:05:20;;;;;;;9.57;1.60;;;17.10;99.90;;;;;;5045501;28;20244;-70
2022/06/17 05:07:49;;;;;;;3.40;1.73;;;17.10;99.90;;;;;;5040332;28;20172;-70
2022/06/17 05:10:43;;;;;;;3.70;1.88;;;17.10;99.90;;;;;;5033178;28;20187;-70
2022/06/17 05:13:30;;;;;;;3.73;1.77;;;17.00;99.90;;;;;;5032656;28;20195;-69
2022/06/17 05:15:55;;;;;;;12.90;3.83;;;17.20;99.90;;;;;;5033698;28;20203;-70
2022/06/17 05:18:21;;;;;;;54.80;18.87;;;17.30;99.90;;;;;;5033127;28;20221;-70
2022/06/17 05:20:47;;;;;;;63.00;21.27;;;17.40;99.90;;;;;;5033444;28;20222;-69
2022/06/17 05:23:16;;;;;;;101.70;34.08;;;17.40;99.90;;;;;;5033214;28;20215;-69
2022/06/17 05:25:44;;;;;;;43.05;15.93;;;17.50;99.90;;;;;;5033566;28;20200;-70
2022/06/17 05:28:15;;;;;;;26.17;12.53;;;17.50;99.90;;;;;;5032430;28;20609;-70
2022/06/17 05:30:45;;;;;;;17.90;6.90;;;17.60;99.90;;;;;;5035408;28;20211;-69
2022/06/17 05:33:13;;;;;;;111.10;57.40;;;17.70;99.90;;;;;;5036452;28;20153;-70
2022/06/17 05:35:39;;;;;;;10.20;5.63;;;17.80;99.90;;;;;;5036535;28;20176;-70
2022/06/17 05:38:04;;;;;;;11.20;5.27;;;17.70;99.90;;;;;;5037696;28;20258;-70
2022/06/17 05:40:32;;;;;;;21.30;5.07;;;17.80;99.90;;;;;;5047918;28;20169;-69
2022/06/17 05:42:58;;;;;;;8.35;4.03;;;17.90;99.90;;;;;;5048111;28;20184;-70
2022/06/17 05:45:25;;;;;;;3.08;2.38;;;17.80;99.90;;;;;;5047624;28;20164;-71
2022/06/17 05:47:52;;;;;;;4.20;2.17;;;17.90;99.90;;;;;;5048578;28;20161;-70
2022/06/17 05:50:19;;;;;;;2.50;1.98;;;17.90;99.90;;;;;;5037656;28;20157;-69
2022/06/17 05:52:49;;;;;;;2.65;1.55;;;18.00;99.90;;;;;;5037435;28;20181;-70
2022/06/17 05:55:14;;;;;;;3.85;1.77;;;18.10;99.90;;;;;;5036621;28;20165;-70
2022/06/17 05:57:40;;;;;;;2.75;1.50;;;18.20;99.90;;;;;;5037040;28;20474;-69
2022/06/17 06:00:06;;;;;;;2.38;1.55;;;18.20;99.90;;;;;;5036859;28;20204;-71
2022/06/17 06:02:32;;;;;;;4.22;1.77;;;18.20;99.90;;;;;;5037322;28;20184;-70
2022/06/17 06:04:57;;;;;;;2.22;1.70;;;18.30;99.90;;;;;;5035315;28;20232;-70
2022/06/17 06:07:23;;;;;;;3.75;1.48;;;18.40;99.90;;;;;;5035914;28;20212;-70
2022/06/17 06:09:48;;;;;;;1.33;1.10;;;18.40;99.90;;;;;;5036689;28;20169;-69
2022/06/17 06:12:14;;;;;;;1.70;1.50;;;18.50;99.90;;;;;;5035383;28;20181;-70
2022/06/17 06:14:39;;;;;;;1.98;1.30;;;18.50;99.90;;;;;;5035487;28;20204;-70
2022/06/17 06:17:05;;;;;;;1.73;1.40;;;18.60;99.90;;;;;;5036451;28;20566;-70
2022/06/17 06:19:32;;;;;;;2.30;1.30;;;18.60;99.90;;;;;;5036358;28;20196;-71
2022/06/17 06:21:57;;;;;;;2.70;1.65;;;18.70;99.90;;;;;;5036524;28;20555;-69
2022/06/17 06:24:23;;;;;;;1.80;1.50;;;18.90;99.90;;;;;;5035922;28;20171;-70
2022/06/17 06:26:49;;;;;;;2.00;1.50;;;18.90;99.90;;;;;;5036109;28;20192;-70
2022/06/17 06:29:14;;;;;;;4.78;1.50;;;19.00;99.90;;;;;;5035371;28;20185;-69
2022/06/17 06:31:40;;;;;;;2.00;1.30;;;19.10;99.90;;;;;;5034860;28;20180;-69
2022/06/17 06:34:06;;;;;;;1.45;1.10;;;19.30;99.90;;;;;;5036574;28;20565;-70
2022/06/17 06:36:32;;;;;;;1.40;1.30;;;19.30;99.90;;;;;;5032458;28;20165;-71
2022/06/17 06:38:57;;;;;;;4.82;1.40;;;19.60;99.90;;;;;;5035646;28;20196;-70
2022/06/17 06:41:23;;;;;;;4.72;1.58;;;19.70;99.30;;;;;;5032814;28;20169;-70
2022/06/17 06:43:49;;;;;;;1.50;1.20;;;19.60;98.30;;;;;;5035752;28;20594;-70
2022/06/17 06:46:17;;;;;;;1.95;1.40;;;19.50;98.90;;;;;;5033626;28;20176;-70
2022/06/17 06:48:44;;;;;;;3.55;1.42;;;19.60;98.50;;;;;;5035703;28;20157;-69
2022/06/17 06:51:10;;;;;;;1.38;1.27;;;19.60;98.40;;;;;;5034158;28;20612;-71
2022/06/17 06:53:35;;;;;;;1.65;1.40;;;19.90;99.20;;;;;;5035492;28;20175;-70
2022/06/17 06:56:03;;;;;;;5.55;1.60;;;19.80;97.70;;;;;;5034701;28;20256;-70
2022/06/17 06:58:28;;;;;;;2.25;1.45;;;19.90;97.30;;;;;;5036806;28;20254;-68
2022/06/17 07:00:56;;;;;;;2.63;1.52;;;19.90;97.80;;;;;;5037968;28;20169;-72
2022/06/17 07:03:23;;;;;;;3.33;1.83;;;20.00;97.90;;;;;;5038473;28;20161;-70
2022/06/17 07:05:52;;;;;;;4.05;1.38;;;20.20;97.20;;;;;;5039337;28;20716;-70
2022/06/17 07:08:19;;;;;;;2.58;1.30;;;20.40;97.20;;;;;;5042573;28;20577;-70
2022/06/17 07:10:47;;;;;;;1.63;1.33;;;20.40;96.00;;;;;;5035910;28;20250;-71
2022/06/17 07:13:13;;;;;;;2.40;1.40;;;20.40;96.60;;;;;;5032825;28;20651;-72
2022/06/17 07:15:41;;;;;;;2.35;1.55;;;20.40;95.60;;;;;;5020828;28;20205;-70
2022/06/17 07:18:18;;;;;;;2.70;1.48;;;20.40;95.20;;;;;;5019210;28;20477;-70
2022/06/17 07:20:46;;;;;;;3.92;1.60;;;20.20;96.40;;;;;;5019853;28;20513;-72
2022/06/17 07:23:23;;;;;;;4.15;1.60;;;20.40;95.10;;;;;;5020866;28;20178;-71
2022/06/17 07:25:49;;;;;;;2.20;1.63;;;20.50;95.70;;;;;;5020006;28;20157;-68
2022/06/17 07:28:18;;;;;;;1.70;1.58;;;20.60;95.60;;;;;;5018026;28;20174;-69
2022/06/17 07:30:46;;;;;;;1.50;1.40;;;20.70;94.80;;;;;;5018603;28;20197;-71
2022/06/17 07:33:13;;;;;;;2.17;1.40;;;20.80;95.20;;;;;;5016115;28;20158;-69
2022/06/17 07:35:41;;;;;;;3.67;1.63;;;20.90;94.40;;;;;;5015141;28;20256;-69
2022/06/17 07:40:58;;;;;;;5.57;1.42;;;21.00;94.30;;;;;;5015151;28;20212;-70
2022/06/17 07:43:24;;;;;;;1.60;1.40;;;21.10;93.00;;;;;;5014012;28;20169;-71
2022/06/17 07:45:50;;;;;;;1.33;1.23;;;21.20;94.40;;;;;;5015391;28;20177;-69
2022/06/17 07:48:18;;;;;;;1.40;1.30;;;21.50;93.10;;;;;;5013567;28;20607;-71
2022/06/17 07:50:45;;;;;;;1.92;1.48;;;21.40;92.90;;;;;;5015029;28;20157;-72
2022/06/17 07:53:13;;;;;;;4.15;1.40;;;21.40;93.60;;;;;;5014538;28;20169;-70
2022/06/17 07:55:40;;;;;;;3.10;1.65;;;21.50;92.60;;;;;;5015601;28;20176;-71
2022/06/17 07:58:06;;;;;;;1.90;1.40;;;21.00;92.60;;;;;;5013713;28;20261;-70
2022/06/17 08:00:36;;;;;;;1.70;1.27;;;20.90;93.50;;;;;;5014623;28;20212;-71
2022/06/17 08:03:03;;;;;;;2.22;1.38;;;20.80;92.90;;;;;;5014642;28;20205;-70
2022/06/17 08:05:30;;;;;;;1.52;1.27;;;20.70;93.90;;;;;;5013174;28;20240;-70
2022/06/17 08:07:56;;;;;;;1.95;1.27;;;20.70;94.40;;;;;;5014543;28;20154;-68
2022/06/17 08:10:25;;;;;;;1.60;1.40;;;20.60;93.50;;;;;;5014455;28;20236;-71
2022/06/17 08:12:51;;;;;;;1.55;1.40;;;20.30;93.50;;;;;;5014507;28;20172;-71
2022/06/17 08:15:17;;;;;;;1.75;1.20;;;20.20;95.80;;;;;;5014520;28;20252;-70
2022/06/17 08:17:43;;;;;;;3.40;1.65;;;20.40;94.40;;;;;;5014616;28;20166;-70
2022/06/17 08:20:24;;;;;;;1.67;1.17;;;21.10;93.20;;;;;;5014593;28;20540;-71
2022/06/17 08:22:50;;;;;;;3.25;1.73;;;21.10;92.90;;;;;;5014648;28;20180;-70
2022/06/17 08:25:16;;;;;;;2.60;1.50;;;21.00;92.60;;;;;;5014185;28;20173;-71
2022/06/17 08:27:44;;;;;;;2.33;1.13;;;21.00;93.30;;;;;;5014408;28;20174;-69
2022/06/17 08:30:10;;;;;;;3.45;1.33;;;20.90;92.60;;;;;;5014645;28;20216;-71
2022/06/17 08:32:45;;;;;;;2.50;1.52;;;20.90;92.70;;;;;;5014856;28;20205;-71
2022/06/17 08:35:12;;;;;;;5.05;1.55;;;21.00;92.70;;;;;;5014484;28;20208;-70
2022/06/17 08:37:38;;;;;;;2.13;1.40;;;21.00;92.50;;;;;;5013166;28;20232;-69
2022/06/17 08:40:33;;;;;;;2.05;1.38;;;21.30;92.40;;;;;;5015054;28;20202;-69
2022/06/17 08:43:07;;;;;;;1.30;1.20;;;21.30;91.80;;;;;;5013732;28;20169;-69
2022/06/17 08:46:17;;;;;;;6.13;1.45;;;21.20;91.70;;;;;;5013653;28;20161;-69
2022/06/17 08:48:55;;;;;;;2.45;1.25;;;20.90;92.10;;;;;;5005777;28;20205;-74
2022/06/17 08:51:44;;;;;;;2.35;1.23;;;20.90;92.50;;;;;;5013491;28;20166;-70
2022/06/17 08:54:55;;;;;;;6.20;1.52;;;21.00;92.60;;;;;;5014590;28;20177;-71
2022/06/17 08:57:59;;;;;;;1.55;1.27;;;21.20;92.50;;;;;;5011066;28;20195;-70
2022/06/17 09:00:40;;;;;;;3.35;1.35;;;21.80;90.70;;;;;;5015037;28;20200;-69
2022/06/17 09:03:20;;;;;;;2.35;1.40;;;21.90;88.40;;;;;;5025787;28;20181;-71
2022/06/17 09:05:56;;;;;;;1.58;1.25;;;21.70;88.90;;;;;;5026852;28;20232;-70
2022/06/17 09:08:46;;;;;;;2.72;1.42;;;22.10;85.70;;;;;;5032903;28;20363;-73
2022/06/17 09:11:27;;;;;;;1.63;1.20;;;22.30;86.00;;;;;;5013941;28;20168;-71
2022/06/17 09:14:01;;;;;;;1.67;1.30;;;22.40;81.90;;;;;;5013979;28;20616;-70
2022/06/17 09:16:48;;;;;;;1.88;1.20;;;22.50;85.10;;;;;;5013897;28;20241;-69
2022/06/17 09:19:19;;;;;;;1.92;1.27;;;22.10;83.00;;;;;;5013090;28;20649;-70
2022/06/17 09:21:52;;;;;;;1.65;1.20;;;22.20;84.40;;;;;;5013004;28;20169;-71
2022/06/17 09:24:32;;;;;;;1.20;1.10;;;22.10;84.80;;;;;;5012134;28;20176;-69
2022/06/17 09:27:02;;;;;;;2.67;1.10;;;22.10;85.70;;;;;;5013243;28;20241;-70
2022/06/17 09:29:32;;;;;;;1.55;1.30;;;22.40;82.80;;;;;;5013070;28;20170;-72
2022/06/17 09:32:22;;;;;;;1.70;1.20;;;22.70;84.30;;;;;;5012146;28;20173;-71
2022/06/17 09:35:04;;;;;;;2.47;1.30;;;22.90;82.30;;;;;;5012739;28;20149;-71
2022/06/17 09:37:48;;;;;;;2.05;1.38;;;23.00;80.60;;;;;;5012749;28;20215;-70
2022/06/17 09:40:27;;;;;;;2.05;1.27;;;23.10;79.50;;;;;;5012989;28;20205;-70
2022/06/17 09:43:16;;;;;;;0.90;0.90;;;22.80;80.20;;;;;;5013381;28;20263;-70
2022/06/17 09:45:50;;;;;;;1.58;1.40;;;22.90;79.80;;;;;;5013289;28;20284;-71
2022/06/17 09:48:24;;;;;;;5.57;1.30;;;23.30;80.20;;;;;;5013046;28;20161;-73
2022/06/17 09:50:58;;;;;;;2.38;1.20;;;23.50;77.30;;;;;;5013258;28;20167;-71
2022/06/17 09:53:44;;;;;;;4.40;1.40;;;23.10;77.70;;;;;;5013177;28;20173;-71
2022/06/17 09:56:37;;;;;;;2.20;1.52;;;22.60;78.70;;;;;;5012260;28;20182;-71
2022/06/17 09:59:18;;;;;;;1.80;1.23;;;22.70;79.40;;;;;;5008645;28;20252;-72
2022/06/17 10:01:45;;;;;;;1.70;1.25;;;22.80;78.70;;;;;;5013166;28;20629;-71
2022/06/17 10:04:12;;;;;;;3.22;1.75;;;22.90;79.80;;;;;;5011783;28;20263;-71
2022/06/17 10:07:03;;;;;;;1.30;1.20;;;23.20;77.00;;;;;;5012851;28;20153;-70
2022/06/17 10:10:01;;;;;;;2.30;1.25;;;23.30;76.00;;;;;;5013990;28;20169;-71
2022/06/17 10:12:40;;;;;;;3.95;1.70;;;23.70;75.70;;;;;;4998007;28;20189;-71
2022/06/17 10:15:34;;;;;;;1.23;1.13;;;23.90;75.30;;;;;;5012482;28;20168;-70
2022/06/17 10:21:25;;;;;;;10.27;1.42;;;23.40;73.50;;;;;;5012494;28;20629;-71
2022/06/17 10:24:08;;;;;;;4.72;1.30;;;23.50;74.50;;;;;;5015848;28;20247;-69
2022/06/17 10:27:08;;;;;;;2.40;1.15;;;23.50;72.50;;;;;;5015790;28;20220;-71
2022/06/17 10:29:39;;;;;;;2.15;1.00;;;23.80;74.30;;;;;;5016778;28;20209;-71
2022/06/17 10:32:06;;;;;;;2.05;1.25;;;23.70;71.90;;;;;;5016660;28;20164;-71
2022/06/17 10:34:37;;;;;;;3.25;1.42;;;24.00;71.90;;;;;;5016553;28;20244;-70
2022/06/17 10:37:04;;;;;;;3.40;1.20;;;24.30;70.90;;;;;;5016456;28;20165;-71
2022/06/17 10:39:34;;;;;;;1.90;1.42;;;24.30;70.10;;;;;;5016610;28;20280;-71
2022/06/17 10:42:00;;;;;;;3.92;1.27;;;24.50;70.60;;;;;;5016372;28;20188;-70
2022/06/17 10:44:30;;;;;;;1.77;1.38;;;24.70;69.00;;;;;;5015875;28;20170;-70
2022/06/17 10:47:17;;;;;;;3.42;1.30;;;24.60;67.80;;;;;;5016176;28;20185;-71
2022/06/17 10:49:49;;;;;;;1.40;1.23;;;24.50;68.90;;;;;;5018257;28;20228;-73
2022/06/17 10:52:24;;;;;;;1.30;1.20;;;24.90;69.30;;;;;;5016317;28;20166;-72
2022/06/17 10:54:51;;;;;;;2.70;1.40;;;25.20;67.00;;;;;;5015917;28;20161;-72
2022/06/17 10:57:32;;;;;;;1.60;1.30;;;24.90;66.00;;;;;;5015650;28;20177;-73
2022/06/17 10:59:58;;;;;;;2.28;1.38;;;25.10;66.80;;;;;;5025109;28;20196;-71
2022/06/17 11:02:31;;;;;;;1.40;1.20;;;25.00;65.30;;;;;;5027488;28;20194;-70
2022/06/17 11:05:03;;;;;;;2.63;1.20;;;24.70;65.50;;;;;;5027028;28;20321;-72
2022/06/17 11:07:36;;;;;;;3.17;1.48;;;25.00;66.20;;;;;;5022633;28;20178;-72
2022/06/17 11:10:16;;;;;;;1.75;1.25;;;25.10;66.50;;;;;;5015592;28;20192;-72
2022/06/17 11:12:52;;;;;;;2.35;1.35;;;24.70;65.70;;;;;;5015956;28;20674;-72
2022/06/17 11:15:29;;;;;;;1.25;1.15;;;25.00;66.40;;;;;;5016550;28;20176;-72
2022/06/17 11:17:59;;;;;;;1.63;1.25;;;24.80;65.40;;;;;;5016017;28;20177;-70
2022/06/17 11:20:31;;;;;;;2.92;1.30;;;24.70;65.70;;;;;;5016210;28;20244;-70
2022/06/17 11:23:04;;;;;;;1.05;1.05;;;25.00;66.00;;;;;;5015216;28;20189;-72
2022/06/17 11:25:36;;;;;;;1.85;1.30;;;25.00;64.10;;;;;;5015556;28;20157;-71
2022/06/17 11:28:11;;;;;;;3.17;1.40;;;25.00;65.80;;;;;;5016211;28;20224;-71
2022/06/17 11:30:50;;;;;;;1.38;1.00;;;24.90;64.10;;;;;;5016088;28;20173;-70
2022/06/17 11:33:36;;;;;;;1.77;1.25;;;25.50;66.40;;;;;;5017003;28;20161;-70
2022/06/17 11:36:14;;;;;;;4.13;1.30;;;25.60;63.50;;;;;;5019940;28;20165;-70
2022/06/17 11:38:40;;;;;;;1.33;1.20;;;25.00;62.80;;;;;;5015739;28;20224;-70
2022/06/17 11:41:07;;;;;;;5.25;1.40;;;25.30;64.50;;;;;;5015166;28;20688;-71
2022/06/17 11:43:43;;;;;;;3.67;1.52;;;25.50;62.30;;;;;;5014876;28;20303;-71
2022/06/17 11:46:12;;;;;;;3.10;1.20;;;25.60;62.60;;;;;;5015263;28;20161;-71
2022/06/17 11:48:44;;;;;;;1.92;1.52;;;25.30;62.10;;;;;;5014309;28;20165;-71
2022/06/17 11:51:14;;;;;;;2.53;1.50;;;25.80;62.60;;;;;;5015191;28;20173;-70
2022/06/17 11:53:51;;;;;;;2.05;1.50;;;25.80;62.60;;;;;;5014628;28;20232;-72
2022/06/17 11:56:27;;;;;;;3.13;1.50;;;26.00;61.80;;;;;;5014261;28;20157;-71
2022/06/17 11:59:14;;;;;;;3.78;1.45;;;26.00;59.90;;;;;;5013343;28;20204;-72
2022/06/17 12:01:42;;;;;;;2.15;1.50;;;26.10;60.30;;;;;;5014744;28;20243;-70
2022/06/17 12:04:40;;;;;;;1.83;1.45;;;25.60;59.60;;;;;;5013898;28;20250;-72
2022/06/17 12:07:40;;;;;;;1.08;1.05;;;25.60;61.70;;;;;;5013919;28;20602;-71
2022/06/17 12:10:26;;;;;;;1.55;1.25;;;25.80;60.90;;;;;;4995915;28;20196;-70
2022/06/17 12:12:56;;;;;;;2.05;1.85;;;25.60;60.20;;;;;;5013328;28;20173;-71
2022/06/17 12:15:40;;;;;;;1.05;1.05;;;26.20;60.90;;;;;;5014278;28;20278;-70
2022/06/17 12:18:10;;;;;;;2.28;1.38;;;26.10;59.70;;;;;;5014215;28;20248;-71
2022/06/17 12:21:02;;;;;;;4.63;1.30;;;26.00;58.90;;;;;;5014392;28;20197;-71
2022/06/17 12:23:41;;;;;;;2.30;1.33;;;26.10;58.90;;;;;;5005874;28;20208;-69
2022/06/17 12:26:33;;;;;;;1.23;1.13;;;25.80;58.40;;;;;;5014053;28;20165;-71
2022/06/17 12:29:01;;;;;;;4.30;1.40;;;25.90;60.30;;;;;;5013748;28;20165;-71
2022/06/17 12:31:27;;;;;;;1.63;1.30;;;26.50;59.80;;;;;;5013671;28;20668;-70
2022/06/17 12:34:10;;;;;;;2.70;1.23;;;26.90;58.50;;;;;;5014061;28;20165;-73
2022/06/17 12:36:46;;;;;;;3.67;1.30;;;26.70;57.90;;;;;;5013595;28;20161;-71
2022/06/17 12:39:35;;;;;;;2.38;1.20;;;26.40;57.90;;;;;;5013590;28;20665;-70
2022/06/17 12:42:29;;;;;;;1.70;1.35;;;26.20;58.00;;;;;;5010903;28;20308;-72
2022/06/17 12:45:17;;;;;;;1.90;1.30;;;26.40;57.60;;;;;;5012753;28;20197;-71
2022/06/17 12:47:51;;;;;;;2.45;1.10;;;25.70;56.40;;;;;;5013979;28;20282;-72
2022/06/17 12:53:33;;;;;;;1.23;1.13;;;26.50;56.10;;;;;;5014725;28;20360;-70
2022/06/17 12:56:17;;;;;;;2.10;1.20;;;26.50;55.20;;;;;;5025112;28;20272;-71
2022/06/17 12:58:57;;;;;;;3.33;1.20;;;26.60;55.40;;;;;;5027415;28;20269;-73
2022/06/17 13:01:39;;;;;;;1.55;1.30;;;26.80;55.40;;;;;;5023959;28;20173;-71
2022/06/17 13:04:08;;;;;;;4.57;1.23;;;26.90;54.80;;;;;;5013525;28;20166;-71
2022/06/17 13:06:58;;;;;;;1.38;1.25;;;27.00;55.50;;;;;;5013504;28;20185;-72
2022/06/17 13:09:48;;;;;;;3.80;1.08;;;26.90;55.20;;;;;;5013238;28;20173;-70
2022/06/17 13:12:39;;;;;;;1.08;1.00;;;26.90;55.40;;;;;;5013568;28;20166;-71
2022/06/17 13:15:17;;;;;;;1.58;1.13;;;26.90;54.70;;;;;;5010825;28;20292;-70
2022/06/17 13:17:56;;;;;;;1.48;1.20;;;26.80;54.80;;;;;;5013326;28;20162;-69
2022/06/17 13:20:27;;;;;;;1.17;1.10;;;26.20;55.00;;;;;;5012468;28;20209;-70
2022/06/17 13:23:39;;;;;;;2.25;1.20;;;26.60;55.70;;;;;;5013353;28;20511;-70
2022/06/17 13:26:14;;;;;;;1.15;1.00;;;27.00;55.50;;;;;;4990959;28;20181;-71
2022/06/17 13:29:08;;;;;;;5.85;1.23;;;27.00;54.20;;;;;;5010250;28;20267;-72